Time;durP1;ratioP1;P1;durP2;ratioP2;P2;SDS_P1;SDS_P2;PMS_P1;PMS_P2;Temp;Humidity;BMP_temperature;BMP_pressure;BME280_temperature;BME280_humidity;BME280_pressure;Samples;Min_cycle;Max_cycle;Signal;HPM_P1;HPM_P2
2023/02/04 00:01:39;;;;;;;9.90;2.42;;;;;;;7.95;100.00;102569.91;4955932;28;20110;-94
2023/02/04 00:04:04;;;;;;;9.95;2.50;;;;;;;7.89;100.00;102555.38;4967029;28;20548;-94
2023/02/04 00:06:30;;;;;;;9.35;1.90;;;;;;;7.89;100.00;102562.25;4965192;28;20366;-95
2023/02/04 00:08:55;;;;;;;9.77;1.90;;;;;;;7.93;100.00;102559.63;4954073;28;20556;-94
2023/02/04 00:11:21;;;;;;;5.07;1.75;;;;;;;8.01;100.00;102572.38;4962621;28;20113;-93
2023/02/04 00:13:47;;;;;;;6.63;1.92;;;;;;;7.82;100.00;102547.78;4972957;28;20027;-94
2023/02/04 00:16:12;;;;;;;5.45;1.63;;;;;;;7.83;100.00;102570.91;4969843;28;20019;-94
2023/02/04 00:18:38;;;;;;;8.50;1.75;;;;;;;7.84;100.00;102564.03;4972832;28;20469;-94
2023/02/04 00:21:04;;;;;;;10.40;2.08;;;;;;;7.63;100.00;102544.56;4963176;28;20027;-94
2023/02/04 00:23:29;;;;;;;5.88;1.50;;;;;;;7.61;100.00;102551.47;4955155;28;20035;-94
2023/02/04 00:25:55;;;;;;;5.13;1.52;;;;;;;7.50;100.00;102544.69;4954906;28;20023;-94
2023/02/04 00:28:20;;;;;;;5.10;2.08;;;;;;;7.58;100.00;102562.59;4953709;28;20031;-94
2023/02/04 00:30:46;;;;;;;5.82;1.30;;;;;;;7.52;100.00;102548.97;4960348;28;20362;-93
2023/02/04 00:33:12;;;;;;;5.72;1.17;;;;;;;7.47;100.00;102555.00;4971824;28;20080;-95
2023/02/04 00:35:38;;;;;;;8.10;1.88;;;;;;;7.39;100.00;102541.41;4967128;28;20086;-95
2023/02/04 00:38:04;;;;;;;9.55;1.40;;;;;;;7.38;100.00;102549.13;4957343;28;20024;-95
2023/02/04 00:40:30;;;;;;;4.38;1.40;;;;;;;7.41;100.00;102565.38;4969940;28;20387;-93
2023/02/04 00:42:55;;;;;;;7.18;1.50;;;;;;;7.45;100.00;102553.31;4972810;28;20027;-94
2023/02/04 00:45:21;;;;;;;17.98;1.90;;;;;;;7.41;100.00;102546.50;4972819;28;20026;-94
2023/02/04 00:47:46;;;;;;;7.25;1.58;;;;;;;7.46;100.00;102553.31;4971932;28;20037;-94
2023/02/04 00:50:12;;;;;;;2.95;0.90;;;;;;;7.36;100.00;102549.13;4976785;28;20053;-95
2023/02/04 00:52:37;;;;;;;10.00;1.30;;;;;;;7.34;100.00;102553.44;4987492;28;20050;-94
2023/02/04 00:55:03;;;;;;;8.20;1.20;;;;;;;7.45;100.00;102566.16;4992571;28;20030;-94
2023/02/04 00:57:29;;;;;;;7.30;0.95;;;;;;;7.44;100.00;102567.06;4974524;28;20031;-93
2023/02/04 00:59:54;;;;;;;5.20;1.25;;;;;;;7.38;100.00;102564.53;4972212;28;20122;-94
2023/02/04 01:02:20;;;;;;;5.78;2.40;;;;;;;7.43;100.00;102570.47;4969518;28;20030;-93
2023/02/04 01:04:46;;;;;;;4.93;0.65;;;;;;;7.25;100.00;102554.38;4969305;28;20125;-93
2023/02/04 01:07:11;;;;;;;4.50;1.20;;;;;;;7.26;100.00;102548.34;4971684;28;20090;-94
2023/02/04 01:09:37;;;;;;;2.63;0.60;;;;;;;7.22;100.00;102564.69;4973869;28;20481;-92
2023/02/04 01:12:03;;;;;;;3.33;0.73;;;;;;;7.18;100.00;102551.88;4971833;28;20026;-94
2023/02/04 01:14:28;;;;;;;6.10;0.75;;;;;;;7.37;100.00;102562.84;4964822;28;20023;-92
2023/02/04 01:16:54;;;;;;;3.45;0.80;;;;;;;7.35;100.00;102577.41;4953170;29;20094;-94
2023/02/04 01:19:20;;;;;;;2.63;0.70;;;;;;;7.32;100.00;102568.03;4965774;28;20053;-95
2023/02/04 01:21:45;;;;;;;3.92;1.02;;;;;;;7.41;100.00;102585.03;4971090;28;20014;-93
2023/02/04 01:24:11;;;;;;;12.55;1.08;;;;;;;7.26;100.00;102568.06;4972592;28;20030;-95
2023/02/04 01:26:36;;;;;;;4.40;0.70;;;;;;;7.20;100.00;102561.28;4962902;28;20030;-93
2023/02/04 01:29:02;;;;;;;6.05;1.25;;;;;;;7.35;100.00;102585.13;4952887;28;20031;-95
2023/02/04 01:31:30;;;;;;;3.97;0.88;;;;;;;7.10;100.00;102554.53;4962318;28;20409;-94
2023/02/04 01:33:56;;;;;;;8.60;1.10;;;;;;;7.07;100.00;102559.66;4972493;28;20443;-95
2023/02/04 01:36:21;;;;;;;6.40;1.08;;;;;;;7.14;100.00;102571.59;4967604;28;20027;-94
2023/02/04 01:38:48;;;;;;;3.13;0.60;;;;;;;7.18;100.00;102588.69;4953966;28;20042;-94
2023/02/04 01:41:15;;;;;;;3.25;0.85;;;;;;;7.13;100.00;102564.75;4960817;28;20157;-94
2023/02/04 01:43:40;;;;;;;4.70;0.70;;;;;;;7.23;100.00;102586.91;4970225;28;20031;-94
2023/02/04 01:46:06;;;;;;;2.22;0.85;;;;;;;7.20;100.00;102575.84;4971558;28;20026;-93
2023/02/04 01:48:32;;;;;;;9.93;1.73;;;;;;;7.15;100.00;102577.59;4972228;28;20098;-94
2023/02/04 01:51:05;;;;;;;4.10;0.80;;;;;;;7.19;100.00;102595.50;4966172;28;20170;-94
2023/02/04 01:53:32;;;;;;;3.08;1.20;;;;;;;7.19;100.00;102595.50;4959996;28;20031;-94
2023/02/04 01:55:57;;;;;;;5.50;0.98;;;;;;;7.24;100.00;102603.19;4971499;28;20086;-95
2023/02/04 01:58:24;;;;;;;6.00;1.08;;;;;;;7.15;100.00;102599.00;4972048;28;20425;-94
2023/02/04 02:00:49;;;;;;;8.45;1.52;;;;;;;7.05;100.00;102587.09;4960781;28;20023;-93
2023/02/04 02:03:15;;;;;;;6.53;1.00;;;;;;;7.19;100.00;102608.34;4972400;28;20026;-94
2023/02/04 02:05:52;;;;;;;4.93;1.00;;;;;;;7.22;100.00;102610.06;4955798;28;20036;-94
2023/02/04 02:08:18;;;;;;;12.15;1.10;;;;;;;6.96;100.00;102579.47;4952682;28;20023;-94
2023/02/04 02:10:47;;;;;;;11.88;1.50;;;;;;;7.13;100.00;102589.59;4968404;28;20384;-94
2023/02/04 02:13:16;;;;;;;9.20;0.95;;;;;;;7.17;100.00;102591.25;4970358;28;20019;-94
2023/02/04 02:15:43;;;;;;;3.60;0.90;;;;;;;7.14;100.00;102587.00;4971390;28;20023;-94
2023/02/04 02:18:09;;;;;;;3.67;0.90;;;;;;;7.16;100.00;102594.69;4975731;28;20027;-93
2023/02/04 02:20:35;;;;;;;8.45;0.93;;;;;;;7.23;100.00;102601.50;4975328;28;20033;-95
2023/02/04 02:23:13;;;;;;;6.80;1.35;;;;;;;7.37;100.00;102601.38;4975294;28;20498;-94
2023/02/04 02:25:39;;;;;;;4.68;0.82;;;;;;;7.24;100.00;102583.50;4974764;28;20121;-94
2023/02/04 02:28:09;;;;;;;2.78;0.73;;;;;;;7.31;100.00;102599.69;4974673;28;20018;-95
2023/02/04 02:30:35;;;;;;;5.55;0.88;;;;;;;7.17;100.00;102576.72;4974822;28;20081;-95
2023/02/04 02:33:01;;;;;;;4.70;0.70;;;;;;;7.07;100.00;102577.63;4975718;28;20567;-94
2023/02/04 02:35:26;;;;;;;3.90;0.88;;;;;;;7.07;100.00;102585.34;4975068;28;20049;-94
2023/02/04 02:37:52;;;;;;;6.80;0.90;;;;;;;7.12;100.00;102583.63;4974125;28;20027;-94
2023/02/04 02:40:18;;;;;;;6.53;1.00;;;;;;;7.24;100.00;102605.75;4974178;28;20122;-95
2023/02/04 02:42:49;;;;;;;5.55;0.85;;;;;;;7.14;100.00;102592.13;4974852;28;20384;-93
2023/02/04 02:45:33;;;;;;;3.83;0.80;;;;;;;7.18;100.00;102592.97;4974802;28;20447;-93
2023/02/04 02:48:03;;;;;;;2.58;0.90;;;;;;;7.06;100.00;102578.53;4975162;28;20054;-93
2023/02/04 02:50:31;;;;;;;3.70;0.52;;;;;;;7.22;100.00;102603.22;4974798;28;20043;-94
2023/02/04 02:52:56;;;;;;;2.90;0.90;;;;;;;7.04;100.00;102570.81;4974751;28;20085;-93
2023/02/04 02:55:25;;;;;;;5.07;0.85;;;;;;;7.15;100.00;102583.59;4968407;28;20055;-94
2023/02/04 02:57:52;;;;;;;3.75;0.63;;;;;;;7.14;100.00;102592.13;4955408;29;20409;-93
2023/02/04 03:00:22;;;;;;;3.83;0.80;;;;;;;7.25;100.00;102610.03;4955539;29;20054;-95
2023/02/04 03:03:13;;;;;;;7.55;1.10;;;;;;;7.20;100.00;102612.63;4955299;29;20023;-93
2023/02/04 03:05:42;;;;;;;2.67;0.98;;;;;;;7.11;100.00;102588.75;4955568;29;20118;-94
2023/02/04 03:08:11;;;;;;;8.77;0.88;;;;;;;7.13;100.00;102595.56;4955226;29;20113;-94
2023/02/04 03:10:36;;;;;;;6.63;0.82;;;;;;;7.02;100.00;102581.97;4964100;28;20035;-94
2023/02/04 03:13:03;;;;;;;6.18;0.82;;;;;;;6.90;100.00;102572.66;4975068;28;20482;-94
2023/02/04 03:15:30;;;;;;;6.60;1.02;;;;;;;6.96;100.00;102582.88;4975264;28;20117;-95
2023/02/04 03:17:56;;;;;;;5.93;1.05;;;;;;;6.93;100.00;102576.94;4975268;28;20026;-95
2023/02/04 03:20:25;;;;;;;5.95;0.88;;;;;;;6.92;100.00;102570.91;4974727;28;20131;-95
2023/02/04 03:22:51;;;;;;;6.85;0.90;;;;;;;7.22;100.00;102605.78;4974029;28;20428;-96
2023/02/04 03:25:17;;;;;;;6.28;1.10;;;;;;;7.18;100.00;102598.97;4974744;28;20385;-95
2023/02/04 03:27:43;;;;;;;4.30;0.95;;;;;;;7.11;100.00;102591.31;4974587;28;20022;-95
2023/02/04 03:30:09;;;;;;;7.95;1.40;;;;;;;6.92;100.00;102559.81;4974686;28;20030;-95
2023/02/04 03:32:34;;;;;;;6.28;0.70;;;;;;;7.03;100.00;102588.81;4974396;28;20034;-94
2023/02/04 03:35:00;;;;;;;3.88;0.52;;;;;;;7.06;100.00;102591.34;4974740;28;20027;-95
2023/02/04 03:37:26;;;;;;;7.30;0.90;;;;;;;6.96;100.00;102569.19;4973430;28;20169;-95
2023/02/04 03:39:51;;;;;;;8.25;0.63;;;;;;;6.95;100.00;102580.31;4973616;28;20051;-95
2023/02/04 03:42:17;;;;;;;7.30;0.77;;;;;;;7.23;100.00;102607.47;4974604;28;20035;-95
2023/02/04 03:44:43;;;;;;;3.42;0.50;;;;;;;7.06;100.00;102592.19;4974643;28;20034;-94
2023/02/04 03:47:08;;;;;;;5.65;0.73;;;;;;;7.06;100.00;102599.91;4973891;28;20026;-94
2023/02/04 03:49:35;;;;;;;1.60;0.57;;;;;;;7.06;100.00;102599.06;4988846;28;20030;-95
2023/02/04 03:52:01;;;;;;;1.95;0.68;;;;;;;7.03;100.00;102593.97;4974225;28;20629;-95
2023/02/04 03:54:27;;;;;;;3.40;0.50;;;;;;;7.02;100.00;102594.81;4974217;28;20499;-95
2023/02/04 03:56:52;;;;;;;2.13;0.40;;;;;;;6.88;100.00;102579.53;4974051;28;20027;-96
2023/02/04 03:59:18;;;;;;;4.07;0.55;;;;;;;6.93;100.00;102593.19;4974269;28;20027;-94
2023/02/04 04:01:44;;;;;;;3.38;0.80;;;;;;;6.98;100.00;102600.84;4974153;28;20114;-95
2023/02/04 04:04:09;;;;;;;2.28;0.70;;;;;;;6.83;100.00;102582.13;4971678;28;20037;-95
2023/02/04 04:06:35;;;;;;;4.45;0.82;;;;;;;7.05;100.00;102617.91;4973334;28;20039;-94
2023/02/04 04:09:00;;;;;;;3.00;0.70;;;;;;;6.88;100.00;102583.78;4974280;28;20026;-96
2023/02/04 04:11:26;;;;;;;6.28;0.80;;;;;;;6.91;100.00;102583.78;4973898;28;20446;-95
2023/02/04 04:13:51;;;;;;;2.15;0.50;;;;;;;6.97;100.00;102596.56;4973699;28;20229;-96
2023/02/04 04:16:17;;;;;;;4.10;0.65;;;;;;;6.93;100.00;102592.34;4973701;28;20026;-95
2023/02/04 04:18:42;;;;;;;3.85;0.60;;;;;;;6.94;100.00;102600.00;4973407;28;20041;-96
2023/02/04 04:21:08;;;;;;;4.30;0.80;;;;;;;7.08;100.00;102620.44;4973687;28;20022;-94
2023/02/04 04:23:34;;;;;;;3.72;0.68;;;;;;;7.02;100.00;102613.66;4973578;28;20023;-95
2023/02/04 04:25:59;;;;;;;6.40;1.13;;;;;;;6.82;100.00;102579.56;4973568;28;20037;-95
2023/02/04 04:28:25;;;;;;;5.00;0.80;;;;;;;6.91;100.00;102597.47;4973598;28;20492;-95
2023/02/04 04:30:50;;;;;;;5.85;0.85;;;;;;;6.93;100.00;102588.03;4973584;28;20393;-96
2023/02/04 04:33:16;;;;;;;6.38;0.90;;;;;;;6.94;100.00;102588.88;4972804;28;20034;-95
2023/02/04 04:35:41;;;;;;;3.65;0.77;;;;;;;6.92;100.00;102585.47;4973483;28;20027;-96
2023/02/04 04:38:07;;;;;;;4.78;0.63;;;;;;;6.98;100.00;102590.56;4972758;28;20088;-94
2023/02/04 04:40:33;;;;;;;5.82;0.90;;;;;;;7.03;100.00;102599.09;4972818;28;20089;-94
2023/02/04 04:42:58;;;;;;;5.35;0.70;;;;;;;7.02;100.00;102607.63;4972977;28;20050;-95
2023/02/04 04:45:24;;;;;;;9.65;1.23;;;;;;;7.08;100.00;102618.72;4973032;28;20481;-95
2023/02/04 04:47:49;;;;;;;7.25;1.00;;;;;;;7.06;100.00;102614.47;4973240;28;20023;-95
2023/02/04 04:50:15;;;;;;;9.25;1.10;;;;;;;7.09;100.00;102634.97;4973020;28;20031;-96
2023/02/04 04:52:40;;;;;;;3.35;0.70;;;;;;;7.13;100.00;102612.72;4972700;28;20034;-94
2023/02/04 04:55:07;;;;;;;10.30;1.00;;;;;;;7.20;100.00;102616.94;4972862;28;20038;-95
2023/02/04 04:57:33;;;;;;;5.55;0.80;;;;;;;7.08;100.00;102612.75;4973194;28;20023;-94
2023/02/04 04:59:58;;;;;;;6.03;0.63;;;;;;;7.07;100.00;102614.47;4973264;28;20026;-95
2023/02/04 05:02:24;;;;;;;13.32;1.08;;;;;;;7.03;100.00;102617.06;4973486;28;20113;-95
2023/02/04 05:04:49;;;;;;;9.70;1.15;;;;;;;6.93;100.00;102607.72;4973094;28;20117;-95
2023/02/04 05:07:15;;;;;;;3.97;1.30;;;;;;;6.99;100.00;102612.81;4973098;28;20407;-96
2023/02/04 05:09:40;;;;;;;8.25;0.90;;;;;;;6.99;100.00;102610.25;4972127;28;20477;-95
2023/02/04 05:12:06;;;;;;;3.17;0.68;;;;;;;7.04;100.00;102618.75;4973025;28;20038;-95
2023/02/04 05:14:32;;;;;;;4.07;0.65;;;;;;;6.99;100.00;102607.66;4972989;28;20027;-96
2023/02/04 05:16:58;;;;;;;8.20;1.30;;;;;;;7.11;100.00;102619.56;4973052;28;20030;-94
2023/02/04 05:19:23;;;;;;;6.65;0.65;;;;;;;6.94;100.00;102612.84;4973136;28;20057;-95
2023/02/04 05:21:49;;;;;;;4.93;1.00;;;;;;;6.93;100.00;102613.72;4973127;28;20034;-94
2023/02/04 05:24:14;;;;;;;4.00;0.80;;;;;;;6.95;100.00;102605.97;4972508;28;20525;-95
2023/02/04 05:26:40;;;;;;;9.07;1.05;;;;;;;6.92;100.00;102608.59;4972794;28;20027;-95
2023/02/04 05:29:06;;;;;;;8.45;1.05;;;;;;;6.76;100.00;102595.88;4972783;28;20373;-95
2023/02/04 05:31:32;;;;;;;3.25;0.68;;;;;;;6.86;100.00;102620.59;4972730;28;20034;-94
2023/02/04 05:33:57;;;;;;;2.38;0.60;;;;;;;6.98;100.00;102632.50;4972777;28;20101;-95
2023/02/04 05:36:23;;;;;;;13.57;1.98;;;;;;;6.76;100.00;102611.25;4973063;28;20034;-94
2023/02/04 05:38:48;;;;;;;9.40;1.88;;;;;;;6.81;100.00;102614.66;4972329;28;20110;-95
2023/02/04 05:41:14;;;;;;;9.10;1.15;;;;;;;6.77;100.00;102610.38;4972535;28;20125;-94
2023/02/04 05:43:40;;;;;;;4.65;0.88;;;;;;;6.83;100.00;102620.63;4972854;28;20054;-94
2023/02/04 05:46:05;;;;;;;5.53;0.95;;;;;;;6.79;100.00;102610.38;4972764;28;20118;-94
2023/02/04 05:48:31;;;;;;;7.93;1.13;;;;;;;6.81;100.00;102618.94;4972650;28;20461;-94
2023/02/04 05:50:56;;;;;;;10.35;1.70;;;;;;;6.73;100.00;102595.91;4973770;28;20027;-94
2023/02/04 05:53:22;;;;;;;9.75;0.98;;;;;;;6.76;100.00;102611.25;4976504;28;20027;-95
2023/02/04 05:55:47;;;;;;;12.10;1.20;;;;;;;6.68;100.00;102605.31;4975867;28;20396;-95
2023/02/04 05:58:13;;;;;;;6.53;1.10;;;;;;;6.73;100.00;102621.56;4976452;28;20031;-95
2023/02/04 06:00:39;;;;;;;12.52;1.10;;;;;;;6.74;100.00;102623.25;4976257;28;20026;-95
2023/02/04 06:03:05;;;;;;;11.50;1.38;;;;;;;6.79;100.00;102624.06;4976140;28;20031;-95
2023/02/04 06:05:31;;;;;;;5.05;1.13;;;;;;;6.86;100.00;102624.88;4976315;28;20030;-96
2023/02/04 06:07:57;;;;;;;5.18;1.00;;;;;;;6.72;100.00;102608.72;4976354;28;20035;-96
2023/02/04 06:10:22;;;;;;;5.15;0.90;;;;;;;6.83;100.00;102618.06;4975237;28;20038;-94
2023/02/04 06:12:48;;;;;;;5.70;1.20;;;;;;;6.85;100.00;102616.34;4975995;28;20031;-94
2023/02/04 06:15:13;;;;;;;4.65;1.00;;;;;;;6.98;100.00;102636.78;4976008;28;20469;-94
2023/02/04 06:17:39;;;;;;;9.65;1.83;;;;;;;6.99;100.00;102628.22;4975885;28;20508;-93
2023/02/04 06:20:06;;;;;;;10.95;1.33;;;;;;;6.89;100.00;102626.56;4975821;28;20035;-93
2023/02/04 06:22:31;;;;;;;8.85;1.10;;;;;;;6.86;100.00;102633.44;4975810;28;20027;-94
2023/02/04 06:24:57;;;;;;;3.40;0.88;;;;;;;6.72;100.00;102626.69;4974994;28;20019;-94
2023/02/04 06:27:22;;;;;;;7.28;1.20;;;;;;;6.75;100.00;102624.94;4975790;28;20030;-95
2023/02/04 06:29:52;;;;;;;7.72;1.13;;;;;;;6.82;100.00;102651.44;4975639;28;20150;-94
2023/02/04 06:32:19;;;;;;;4.45;0.98;;;;;;;6.66;100.00;102630.16;4975503;28;20453;-95
2023/02/04 06:34:45;;;;;;;4.88;0.90;;;;;;;6.62;100.00;102625.88;4975706;28;20026;-94
2023/02/04 06:37:11;;;;;;;3.60;1.00;;;;;;;6.70;100.00;102647.22;4975503;28;20121;-95
2023/02/04 06:39:37;;;;;;;7.75;1.13;;;;;;;6.73;100.00;102636.94;4974762;28;20113;-94
2023/02/04 06:42:02;;;;;;;4.75;0.80;;;;;;;6.59;100.00;102624.19;4975517;28;20110;-94
2023/02/04 06:44:28;;;;;;;5.20;0.80;;;;;;;6.78;100.00;102647.16;4975462;28;20473;-95
2023/02/04 06:46:54;;;;;;;5.75;1.38;;;;;;;6.93;100.00;102666.78;4975740;28;20034;-95
2023/02/04 06:49:19;;;;;;;6.38;1.10;;;;;;;6.78;100.00;102655.75;4975539;28;20031;-96
2023/02/04 06:51:45;;;;;;;6.00;0.75;;;;;;;6.82;100.00;102657.41;4975170;28;20027;-95
2023/02/04 06:54:10;;;;;;;3.38;1.10;;;;;;;6.77;100.00;102641.19;4975168;28;20023;-95
2023/02/04 06:56:36;;;;;;;6.30;1.20;;;;;;;6.86;100.00;102669.38;4974335;28;20031;-94
2023/02/04 06:59:02;;;;;;;6.93;2.05;;;;;;;6.69;100.00;102647.25;4975269;28;20133;-96
2023/02/04 07:01:27;;;;;;;6.60;1.33;;;;;;;6.72;100.00;102650.63;4975004;28;20030;-95
2023/02/04 07:03:53;;;;;;;6.22;0.85;;;;;;;6.84;100.00;102659.97;4974868;28;20113;-95
2023/02/04 07:06:18;;;;;;;8.07;1.20;;;;;;;6.89;100.00;102667.66;4975028;28;20030;-95
2023/02/04 07:08:45;;;;;;;3.17;0.75;;;;;;;6.80;100.00;102659.16;4975062;28;20514;-96
2023/02/04 07:11:11;;;;;;;10.55;1.35;;;;;;;6.78;100.00;102671.13;4974585;28;20027;-95
2023/02/04 07:13:36;;;;;;;5.65;1.00;;;;;;;6.67;100.00;102657.50;4974900;28;20031;-95
2023/02/04 07:16:02;;;;;;;5.53;0.85;;;;;;;6.71;100.00;102658.34;4975049;28;20030;-95
2023/02/04 07:18:27;;;;;;;3.53;0.75;;;;;;;6.68;100.00;102651.50;4975178;28;20027;-94
2023/02/04 07:20:53;;;;;;;4.85;1.30;;;;;;;6.58;100.00;102652.41;4975099;28;20369;-95
2023/02/04 07:23:18;;;;;;;8.18;1.42;;;;;;;6.63;100.00;102649.00;4974671;28;20027;-95
2023/02/04 07:25:44;;;;;;;2.97;0.88;;;;;;;6.63;100.00;102648.09;4974231;28;20038;-96
2023/02/04 07:28:10;;;;;;;6.85;1.65;;;;;;;6.64;100.00;102642.13;4974582;28;20034;-95
2023/02/04 07:30:35;;;;;;;8.68;1.02;;;;;;;6.78;100.00;102650.59;4974384;28;20035;-95
2023/02/04 07:33:01;;;;;;;6.80;1.10;;;;;;;6.74;100.00;102653.19;4973050;28;20027;-95
2023/02/04 07:35:26;;;;;;;6.13;1.60;;;;;;;6.39;100.00;102655.09;4974261;28;20027;-93
2023/02/04 07:37:52;;;;;;;4.35;1.42;;;;;;;6.32;100.00;102661.09;4973925;28;20027;-93
2023/02/04 07:40:17;;;;;;;8.90;2.65;;;;;;;6.40;100.00;102661.06;4974182;28;20034;-93
2023/02/04 07:42:43;;;;;;;9.68;1.10;;;;;;;6.35;100.00;102673.06;4972841;28;20493;-95
2023/02/04 07:45:09;;;;;;;3.80;0.85;;;;;;;6.33;100.00;102683.31;4975987;28;20037;-94
2023/02/04 07:47:34;;;;;;;3.67;1.23;;;;;;;6.27;100.00;102672.22;4973472;28;20061;-95
2023/02/04 07:50:00;;;;;;;20.85;1.58;;;;;;;6.13;100.00;102644.06;4974895;28;20062;-94
2023/02/04 07:52:25;;;;;;;8.32;1.13;;;;;;;6.22;100.00;102669.69;4975391;28;20030;-94
2023/02/04 07:54:51;;;;;;;9.63;1.40;;;;;;;6.26;100.00;102671.38;4974112;28;20126;-94
2023/02/04 07:57:18;;;;;;;5.15;0.90;;;;;;;6.31;100.00;102682.47;4973057;28;20034;-95
2023/02/04 07:59:43;;;;;;;6.03;1.25;;;;;;;6.22;100.00;102657.72;4973385;28;20034;-95
2023/02/04 08:02:18;;;;;;;5.80;1.02;;;;;;;6.22;100.00;102669.69;4973206;28;20038;-96
2023/02/04 08:04:43;;;;;;;3.50;0.73;;;;;;;6.20;100.00;102661.16;4973803;28;20015;-95
2023/02/04 08:07:09;;;;;;;6.93;1.00;;;;;;;6.25;100.00;102669.66;4974135;28;20378;-95
2023/02/04 08:09:34;;;;;;;3.55;0.90;;;;;;;6.34;100.00;102682.47;4973694;28;20042;-95
2023/02/04 08:12:00;;;;;;;6.53;1.83;;;;;;;6.29;100.00;102676.50;4972771;28;20045;-95
2023/02/04 08:14:25;;;;;;;5.53;0.93;;;;;;;6.42;100.00;102702.97;4972681;28;20030;-94
2023/02/04 08:16:51;;;;;;;9.25;0.85;;;;;;;6.39;100.00;102685.88;4973147;28;20027;-96
2023/02/04 08:19:19;;;;;;;4.57;1.35;;;;;;;6.29;100.00;102684.19;4973512;28;20536;-95
2023/02/04 08:21:45;;;;;;;3.67;1.00;;;;;;;6.24;100.00;102678.19;4971203;28;20026;-95
2023/02/04 08:24:15;;;;;;;6.25;1.42;;;;;;;6.33;100.00;102683.31;5024632;23;20629;-95
2023/02/04 08:26:41;;;;;;;6.53;1.13;;;;;;;6.38;100.00;102696.97;5031122;28;20029;-94
2023/02/04 08:29:08;;;;;;;5.95;1.08;;;;;;;6.56;100.00;102710.56;5032857;28;20468;-94
2023/02/04 08:31:35;;;;;;;7.25;1.13;;;;;;;6.44;100.00;102693.53;5032103;28;20026;-94
2023/02/04 08:34:01;;;;;;;6.55;1.13;;;;;;;6.48;100.00;102700.34;5031916;28;20123;-93
2023/02/04 08:36:26;;;;;;;7.38;1.00;;;;;;;6.49;100.00;102708.94;5033183;28;20061;-94
2023/02/04 08:38:52;;;;;;;3.75;0.85;;;;;;;6.56;100.00;102710.56;5032080;28;20417;-94
2023/02/04 08:41:17;;;;;;;3.75;0.68;;;;;;;6.52;100.00;102701.22;5021133;28;20392;-95
2023/02/04 08:43:43;;;;;;;3.17;0.63;;;;;;;6.67;100.00;102711.41;5011553;28;20026;-94
2023/02/04 08:46:09;;;;;;;4.13;0.60;;;;;;;6.65;100.00;102702.84;5012203;28;20083;-94
2023/02/04 08:48:34;;;;;;;8.43;1.05;;;;;;;6.66;100.00;102702.00;5011133;28;20124;-94
2023/02/04 08:51:00;;;;;;;7.90;2.42;;;;;;;6.68;100.00;102705.38;5011987;28;20045;-95
2023/02/04 08:53:25;;;;;;;7.00;1.17;;;;;;;6.70;100.00;102706.25;5012047;28;20113;-94
2023/02/04 08:55:51;;;;;;;4.20;1.17;;;;;;;6.90;100.00;102724.13;5011659;28;20064;-94
2023/02/04 08:58:16;;;;;;;3.95;0.85;;;;;;;6.87;100.00;102721.56;4994570;28;20054;-93
2023/02/04 09:00:42;;;;;;;4.68;0.80;;;;;;;6.78;100.00;102707.06;4993074;28;20026;-93
2023/02/04 09:03:07;;;;;;;7.25;1.17;;;;;;;6.76;100.00;102713.91;5004119;28;20026;-93
2023/02/04 09:05:32;;;;;;;3.97;0.70;;;;;;;6.91;99.90;102735.25;5013377;28;20373;-94
2023/02/04 09:07:58;;;;;;;4.97;0.85;;;;;;;7.06;100.00;102753.13;5012022;28;20026;-94
2023/02/04 09:13:04;;;;;;;4.43;0.73;;;;;;;6.95;97.65;102739.47;5105391;27;20407;-94
2023/02/04 09:15:30;;;;;;;14.57;1.45;;;;;;;6.79;96.38;102724.16;5109650;28;20036;-94
2023/02/04 09:18:03;;;;;;;8.82;1.00;;;;;;;6.97;95.43;102735.19;5109383;28;20293;-95
2023/02/04 09:20:29;;;;;;;5.47;1.25;;;;;;;6.90;92.45;102725.81;5109477;28;20028;-94
2023/02/04 09:22:54;;;;;;;4.53;0.90;;;;;;;7.01;92.22;102727.47;5109335;28;20039;-95
2023/02/04 09:25:20;;;;;;;4.95;1.27;;;;;;;7.01;94.35;102724.06;5110835;28;20020;-96
2023/02/04 09:27:45;;;;;;;13.02;1.00;;;;;;;7.15;96.08;102739.41;5092889;28;20024;-94
2023/02/04 09:30:11;;;;;;;3.30;0.80;;;;;;;6.97;95.74;102737.75;5105896;28;20035;-93
2023/02/04 09:32:37;;;;;;;3.30;1.15;;;;;;;7.02;92.97;102748.84;5111447;28;20119;-94
2023/02/04 09:35:02;;;;;;;5.95;1.30;;;;;;;7.10;94.74;102757.41;5082523;28;20112;-93
2023/02/04 09:37:28;;;;;;;5.25;0.93;;;;;;;7.03;95.89;102748.84;5082109;28;20035;-94
2023/02/04 09:39:54;;;;;;;5.28;0.90;;;;;;;7.09;96.40;102750.53;5094871;28;20028;-94
2023/02/04 09:42:24;;;;;;;3.97;0.80;;;;;;;7.05;96.75;102746.28;5095696;28;20047;-94
2023/02/04 09:44:49;;;;;;;6.00;0.63;;;;;;;7.13;94.24;102749.66;5051784;28;20084;-94
2023/02/04 09:47:20;;;;;;;13.60;1.02;;;;;;;7.22;93.29;102749.63;5033460;28;20061;-94
2023/02/04 09:49:46;;;;;;;7.93;1.00;;;;;;;7.13;91.91;102749.66;5046921;28;20025;-96
2023/02/04 09:52:15;;;;;;;5.00;0.93;;;;;;;7.20;93.50;102735.91;5070746;28;20032;-95
2023/02/04 09:54:41;;;;;;;6.03;1.95;;;;;;;7.15;92.49;102721.41;5063714;28;20026;-96
2023/02/04 09:57:15;;;;;;;5.03;1.30;;;;;;;7.38;94.00;102758.06;5058735;28;20048;-94
2023/02/04 09:59:43;;;;;;;5.75;0.93;;;;;;;7.17;94.45;102740.22;5028429;28;20021;-95
2023/02/04 10:02:25;;;;;;;8.38;1.17;;;;;;;7.35;93.43;102764.94;5029231;28;20022;-94
2023/02/04 10:04:53;;;;;;;6.43;1.17;;;;;;;7.18;93.82;102737.66;5047734;28;20083;-94
2023/02/04 10:07:23;;;;;;;2.50;0.70;;;;;;;7.43;92.78;102773.44;5034511;28;20013;-95
2023/02/04 10:09:49;;;;;;;4.95;1.58;;;;;;;7.25;91.42;102736.75;5033110;28;20026;-94
2023/02/04 10:12:15;;;;;;;6.60;2.03;;;;;;;7.36;91.21;102756.38;5040944;28;20037;-96
2023/02/04 10:14:41;;;;;;;9.65;3.17;;;;;;;7.37;93.04;102758.94;5056417;28;20026;-95
2023/02/04 10:17:08;;;;;;;6.65;2.53;;;;;;;7.44;93.36;102772.59;5028821;28;20026;-96
2023/02/04 10:19:34;;;;;;;9.43;2.90;;;;;;;7.47;92.96;102770.84;5029546;28;20044;-94
2023/02/04 10:22:02;;;;;;;6.70;2.88;;;;;;;7.44;93.38;102752.03;5051312;28;20029;-94
2023/02/04 10:24:29;;;;;;;8.23;3.03;;;;;;;7.47;91.55;102752.84;5018656;28;20034;-95
2023/02/04 10:27:07;;;;;;;11.38;4.07;;;;;;;7.66;91.60;102765.59;5017266;28;20041;-93
2023/02/04 10:29:33;;;;;;;10.95;3.45;;;;;;;7.63;90.68;102756.19;5026985;28;20087;-93
2023/02/04 10:31:58;;;;;;;11.23;3.65;;;;;;;7.54;92.35;102745.13;5029642;28;20037;-93
2023/02/04 10:34:34;;;;;;;11.05;3.33;;;;;;;7.84;91.01;102780.84;5052722;28;20501;-95
2023/02/04 10:37:10;;;;;;;9.50;3.65;;;;;;;7.76;90.26;102758.66;5026768;28;20033;-93
2023/02/04 10:39:41;;;;;;;11.57;3.58;;;;;;;7.87;89.01;102773.09;5031042;28;20065;-94
2023/02/04 10:42:23;;;;;;;8.63;3.15;;;;;;;7.86;89.06;102767.97;5016730;28;20053;-94
2023/02/04 10:44:49;;;;;;;4.93;2.50;;;;;;;7.95;87.55;102773.06;5031762;28;20034;-93
2023/02/04 10:47:16;;;;;;;9.93;3.60;;;;;;;8.02;87.04;102782.41;5028967;28;20426;-94
2023/02/04 10:50:05;;;;;;;17.50;4.68;;;;;;;7.96;87.50;102769.59;5037872;28;20026;-93
2023/02/04 10:54:28;;;;;;;15.98;6.75;;;;;;;8.04;87.74;102778.09;5016364;28;20503;-93
2023/02/04 10:55:40;;;;;;;18.17;5.40;;;;;;;8.07;86.74;102778.06;5021515;28;20459;-94
2023/02/04 10:58:10;;;;;;;12.45;4.97;;;;;;;8.09;87.84;102776.31;5037343;28;20033;-95
2023/02/04 11:00:36;;;;;;;15.30;5.40;;;;;;;8.17;87.76;102778.84;5029951;28;20032;-94
2023/02/04 11:03:15;;;;;;;7.30;3.65;;;;;;;8.26;86.53;102781.31;5014455;28;20113;-94
2023/02/04 11:05:40;;;;;;;12.73;2.78;;;;;;;7.95;87.81;102767.91;5013791;28;20053;-94
2023/02/04 11:08:23;;;;;;;14.02;3.33;;;;;;;8.22;85.57;102789.94;5030113;28;20022;-95
2023/02/04 11:11:02;;;;;;;7.32;1.65;;;;;;;8.13;85.94;102783.16;5032337;28;20033;-95
2023/02/04 11:13:48;;;;;;;7.80;2.78;;;;;;;8.11;85.27;102774.59;5013390;28;20030;-94
2023/02/04 11:16:17;;;;;;;7.13;1.85;;;;;;;8.27;85.66;102795.03;5006238;28;20038;-94
2023/02/04 11:18:46;;;;;;;6.18;2.45;;;;;;;8.27;86.27;102790.75;5024470;28;20112;-93
2023/02/04 11:21:23;;;;;;;5.38;1.77;;;;;;;8.33;84.16;102784.66;5045118;28;20392;-94
2023/02/04 11:23:49;;;;;;;3.50;1.90;;;;;;;8.29;85.12;102788.13;5028102;28;20029;-92
2023/02/04 11:26:21;;;;;;;7.68;2.15;;;;;;;8.12;84.80;102776.31;5025707;28;20088;-92
2023/02/04 11:28:55;;;;;;;;;;;;;;;8.19;85.83;102791.66;5029807;28;20079;-92